Time;durP1;ratioP1;P1;durP2;ratioP2;P2;SDS_P1;SDS_P2;PMS_P1;PMS_P2;Temp;Humidity;BMP_temperature;BMP_pressure;BME280_temperature;BME280_humidity;BME280_pressure;Samples;Min_cycle;Max_cycle;Signal;HPM_P1;HPM_P2
2021/08/07 00:02:13;;;;;;;4.90;1.70;;;17.70;99.90;;;;;;5046740;28;20397;-49
2021/08/07 00:04:41;;;;;;;4.80;1.70;;;17.70;99.90;;;;;;5045894;28;20229;-49
2021/08/07 00:07:07;;;;;;;4.30;1.50;;;17.70;99.90;;;;;;5045953;28;20705;-49
2021/08/07 00:09:34;;;;;;;5.37;2.13;;;17.70;99.90;;;;;;5046179;28;20244;-49
2021/08/07 00:12:01;;;;;;;4.43;1.93;;;17.80;99.90;;;;;;5046355;28;20324;-49
2021/08/07 00:14:28;;;;;;;4.30;1.60;;;17.80;99.90;;;;;;5045335;28;20239;-48
2021/08/07 00:16:54;;;;;;;5.03;1.70;;;17.80;99.90;;;;;;5045711;28;20207;-48
2021/08/07 00:19:21;;;;;;;5.77;2.10;;;17.90;99.90;;;;;;5045917;28;20328;-48
2021/08/07 00:21:48;;;;;;;5.40;2.13;;;18.00;99.90;;;;;;5045867;28;20653;-48
2021/08/07 00:24:16;;;;;;;5.07;1.87;;;18.00;99.90;;;;;;5046046;28;20614;-48
2021/08/07 00:26:43;;;;;;;6.63;2.50;;;17.90;99.90;;;;;;5045855;28;20213;-48
2021/08/07 00:29:10;;;;;;;3.80;2.13;;;17.70;99.90;;;;;;5046452;28;20324;-48
2021/08/07 00:31:36;;;;;;;3.93;1.73;;;17.60;99.90;;;;;;5045972;28;20539;-48
2021/08/07 00:34:03;;;;;;;6.97;2.27;;;17.60;99.90;;;;;;5045785;28;20243;-49
2021/08/07 00:36:30;;;;;;;6.13;2.53;;;17.70;99.90;;;;;;5045636;28;20201;-48
2021/08/07 00:38:57;;;;;;;3.07;1.53;;;17.60;99.90;;;;;;5044963;28;20480;-48
2021/08/07 00:41:24;;;;;;;7.33;2.03;;;17.60;99.90;;;;;;5044639;28;20290;-49
2021/08/07 00:43:50;;;;;;;6.03;2.50;;;17.60;99.90;;;;;;5045310;28;20622;-48
2021/08/07 00:46:17;;;;;;;4.67;2.30;;;17.50;99.90;;;;;;5045238;28;20241;-49
2021/08/07 00:48:44;;;;;;;4.83;2.20;;;17.40;99.90;;;;;;5045236;28;20693;-49
2021/08/07 00:51:11;;;;;;;5.73;2.53;;;17.50;99.90;;;;;;5046055;28;20309;-49
2021/08/07 00:53:38;;;;;;;6.50;2.20;;;17.60;99.90;;;;;;5045690;28;20305;-48
2021/08/07 00:56:05;;;;;;;5.00;2.50;;;17.60;99.90;;;;;;5045308;28;20623;-48
2021/08/07 00:58:31;;;;;;;5.07;2.17;;;17.60;99.90;;;;;;5045332;28;20210;-48
2021/08/07 01:01:03;;;;;;;4.07;2.43;;;17.50;99.90;;;;;;5046656;28;20654;-49
2021/08/07 01:03:45;;;;;;;5.23;2.43;;;17.50;99.90;;;;;;5044634;28;20211;-48
2021/08/07 01:06:45;;;;;;;4.93;2.07;;;17.50;99.90;;;;;;5045513;28;20261;-49
2021/08/07 01:09:22;;;;;;;3.47;1.90;;;17.50;99.90;;;;;;5045641;28;20233;-48
2021/08/07 01:11:58;;;;;;;3.40;1.80;;;17.50;99.90;;;;;;5044920;28;20257;-48
2021/08/07 01:14:37;;;;;;;2.97;2.20;;;17.60;99.90;;;;;;5045141;28;20221;-48
2021/08/07 01:17:11;;;;;;;5.23;2.03;;;17.60;99.90;;;;;;5045282;28;20203;-48
2021/08/07 01:19:47;;;;;;;4.10;2.40;;;17.60;99.90;;;;;;5044520;28;20247;-47
2021/08/07 01:22:18;;;;;;;8.13;2.77;;;17.60;99.90;;;;;;5045995;28;20607;-48
2021/08/07 01:24:58;;;;;;;7.47;2.10;;;17.70;99.90;;;;;;5044357;28;20216;-48
2021/08/07 01:27:27;;;;;;;4.77;2.03;;;17.70;99.90;;;;;;5045195;28;20297;-48
2021/08/07 01:29:56;;;;;;;4.37;2.70;;;17.70;99.90;;;;;;5045858;28;20676;-48
2021/08/07 01:32:28;;;;;;;5.37;2.37;;;17.50;99.90;;;;;;5044775;28;20223;-49
2021/08/07 01:34:57;;;;;;;4.93;2.30;;;17.40;99.90;;;;;;5044763;28;20198;-49
2021/08/07 01:37:24;;;;;;;5.37;2.17;;;17.30;99.90;;;;;;5045326;28;20282;-48
2021/08/07 01:39:54;;;;;;;6.50;2.63;;;17.20;99.90;;;;;;5037664;28;20206;-48
2021/08/07 01:42:22;;;;;;;5.83;2.10;;;17.30;99.90;;;;;;5046480;28;20269;-49
2021/08/07 01:44:49;;;;;;;3.10;2.20;;;17.20;99.90;;;;;;5049041;28;20289;-48
2021/08/07 01:47:28;;;;;;;5.73;2.33;;;17.40;99.90;;;;;;5048501;28;20667;-49
2021/08/07 01:50:22;;;;;;;4.63;2.90;;;17.10;99.90;;;;;;5049289;28;20917;-48
2021/08/07 01:52:54;;;;;;;4.83;2.77;;;17.10;99.90;;;;;;5049088;28;20580;-48
2021/08/07 01:55:26;;;;;;;5.67;2.80;;;17.00;99.90;;;;;;5047691;28;20770;-49
2021/08/07 01:58:05;;;;;;;4.00;2.30;;;17.00;99.90;;;;;;5049234;28;20219;-49
2021/08/07 02:00:33;;;;;;;3.00;2.30;;;17.10;99.90;;;;;;5048547;28;20206;-49
2021/08/07 02:03:01;;;;;;;4.63;2.63;;;17.20;99.90;;;;;;5049097;28;20656;-48
2021/08/07 02:05:28;;;;;;;5.30;2.23;;;17.10;99.90;;;;;;5049045;28;20211;-49
2021/08/07 02:07:56;;;;;;;4.13;2.53;;;17.20;99.90;;;;;;5048980;28;20353;-48
2021/08/07 02:10:23;;;;;;;5.10;2.43;;;17.10;99.90;;;;;;5040397;28;20717;-48
2021/08/07 02:12:50;;;;;;;5.13;2.43;;;17.00;99.90;;;;;;5048870;28;20292;-48
2021/08/07 02:15:19;;;;;;;3.20;2.60;;;16.90;99.90;;;;;;5048368;28;20267;-48
2021/08/07 02:17:48;;;;;;;2.97;2.40;;;16.90;99.90;;;;;;5048301;28;20717;-48
2021/08/07 02:20:17;;;;;;;5.17;2.63;;;16.80;99.90;;;;;;5047676;28;20282;-48
2021/08/07 02:22:46;;;;;;;5.47;3.03;;;16.70;99.90;;;;;;5047962;28;20254;-48
2021/08/07 02:25:13;;;;;;;4.57;2.63;;;16.80;99.90;;;;;;5047735;28;20283;-49
2021/08/07 02:27:42;;;;;;;6.47;2.73;;;16.80;99.90;;;;;;5047617;28;20683;-49
2021/08/07 02:30:10;;;;;;;3.77;2.70;;;16.80;99.90;;;;;;5048581;28;20300;-48
2021/08/07 02:32:37;;;;;;;6.23;3.07;;;16.80;99.90;;;;;;5048006;28;20226;-48
2021/08/07 02:35:07;;;;;;;4.30;3.00;;;16.80;99.90;;;;;;5046866;28;20306;-48
2021/08/07 02:37:34;;;;;;;6.33;3.10;;;16.70;99.90;;;;;;5047483;28;20267;-48
2021/08/07 02:40:04;;;;;;;4.40;3.10;;;16.70;99.90;;;;;;5048671;28;20205;-49
2021/08/07 02:42:36;;;;;;;4.97;3.27;;;16.70;99.90;;;;;;5046695;28;20236;-48
2021/08/07 02:45:05;;;;;;;5.27;2.87;;;16.60;99.90;;;;;;5048204;28;20247;-48
2021/08/07 02:47:33;;;;;;;6.70;3.40;;;16.60;99.90;;;;;;5046555;28;20232;-48
2021/08/07 02:50:02;;;;;;;4.37;3.13;;;16.40;99.90;;;;;;5047025;28;20260;-48
2021/08/07 02:52:28;;;;;;;5.13;3.33;;;16.40;99.90;;;;;;5047906;28;20697;-48
2021/08/07 02:54:56;;;;;;;3.53;3.20;;;16.50;99.90;;;;;;5046458;28;20334;-48
2021/08/07 02:57:23;;;;;;;7.50;3.80;;;16.60;99.90;;;;;;5047501;28;20211;-48
2021/08/07 02:59:50;;;;;;;6.40;3.33;;;16.40;99.90;;;;;;5047923;28;20300;-48
2021/08/07 03:02:16;;;;;;;5.20;3.20;;;16.20;99.90;;;;;;5046509;28;20300;-49
2021/08/07 03:04:43;;;;;;;4.97;3.63;;;16.30;99.90;;;;;;5047555;28;20221;-48
2021/08/07 03:07:10;;;;;;;4.33;2.93;;;16.30;99.90;;;;;;5047720;28;20737;-48
2021/08/07 03:09:37;;;;;;;6.23;3.00;;;16.30;99.90;;;;;;5047585;28;20777;-49
2021/08/07 03:12:04;;;;;;;6.67;2.80;;;16.30;99.90;;;;;;5047602;28;20712;-49
2021/08/07 03:14:30;;;;;;;4.67;2.93;;;16.30;99.90;;;;;;5045759;28;20238;-48
2021/08/07 03:16:57;;;;;;;8.50;3.33;;;16.30;99.90;;;;;;5046639;28;20298;-48
2021/08/07 03:19:24;;;;;;;4.43;2.97;;;16.30;99.90;;;;;;5045654;28;20325;-48
2021/08/07 03:21:51;;;;;;;4.27;2.50;;;16.20;99.90;;;;;;5047457;28;20729;-49
2021/08/07 03:24:18;;;;;;;6.47;2.80;;;16.30;99.90;;;;;;5046847;28;20243;-48
2021/08/07 03:26:46;;;;;;;5.90;2.70;;;16.40;99.90;;;;;;5038363;28;20201;-48
2021/08/07 03:29:12;;;;;;;5.27;2.77;;;16.40;99.90;;;;;;5046400;28;20297;-48
2021/08/07 03:31:39;;;;;;;5.67;2.90;;;16.50;99.90;;;;;;5047564;28;20264;-48
2021/08/07 03:34:06;;;;;;;2.87;2.30;;;16.60;99.90;;;;;;5046217;28;20218;-48
2021/08/07 03:36:33;;;;;;;8.93;2.93;;;16.50;99.90;;;;;;5046267;28;20289;-49
2021/08/07 03:39:00;;;;;;;5.53;2.60;;;16.60;99.90;;;;;;5045441;28;20240;-49
2021/08/07 03:41:26;;;;;;;5.03;2.27;;;16.50;99.90;;;;;;5044126;28;20648;-48
2021/08/07 03:43:53;;;;;;;6.03;2.37;;;16.50;99.90;;;;;;5045781;28;20294;-48
2021/08/07 03:46:20;;;;;;;5.17;2.73;;;16.60;99.90;;;;;;5046340;28;20239;-49
2021/08/07 03:48:47;;;;;;;3.53;2.60;;;16.40;99.90;;;;;;5045847;28;20303;-48
2021/08/07 03:51:14;;;;;;;3.63;3.03;;;16.50;99.90;;;;;;5046582;28;20213;-49
2021/08/07 03:53:40;;;;;;;3.40;2.40;;;16.50;99.90;;;;;;5045569;28;20300;-48
2021/08/07 03:56:07;;;;;;;4.53;2.83;;;16.70;99.90;;;;;;5046198;28;20247;-49
2021/08/07 03:58:34;;;;;;;3.20;2.57;;;16.60;99.90;;;;;;5045626;28;20270;-48
2021/08/07 04:01:01;;;;;;;4.30;2.80;;;16.60;99.90;;;;;;5047360;28;20235;-49
2021/08/07 04:03:27;;;;;;;4.60;2.40;;;16.70;99.90;;;;;;5046287;28;20222;-48
2021/08/07 04:05:55;;;;;;;6.97;2.87;;;16.70;99.90;;;;;;5037482;28;20296;-48
2021/08/07 04:08:21;;;;;;;5.27;2.80;;;16.60;99.90;;;;;;5045613;28;20241;-49
2021/08/07 04:10:48;;;;;;;3.40;2.73;;;16.70;99.90;;;;;;5046916;28;20314;-49
2021/08/07 04:13:15;;;;;;;5.17;2.83;;;16.80;99.90;;;;;;5045340;28;20490;-49
2021/08/07 04:15:42;;;;;;;3.60;2.47;;;16.70;99.90;;;;;;5047298;28;20642;-48
2021/08/07 04:18:09;;;;;;;4.50;2.80;;;16.70;99.90;;;;;;5045446;28;20880;-48
2021/08/07 04:20:36;;;;;;;5.70;2.70;;;16.80;99.90;;;;;;5045580;28;20198;-49
2021/08/07 04:23:03;;;;;;;3.30;3.00;;;16.70;99.90;;;;;;5046079;28;20237;-49
2021/08/07 04:25:30;;;;;;;7.10;2.97;;;16.70;99.90;;;;;;5046286;28;20211;-49
2021/08/07 04:27:57;;;;;;;4.97;2.80;;;16.80;99.90;;;;;;5045200;28;20203;-48
2021/08/07 04:30:24;;;;;;;6.50;3.03;;;16.80;99.90;;;;;;5046703;28;20249;-48
2021/08/07 04:32:50;;;;;;;4.03;2.87;;;16.70;99.90;;;;;;5045532;28;20238;-49
2021/08/07 04:35:18;;;;;;;4.07;3.03;;;16.60;99.90;;;;;;5046333;28;20292;-48
2021/08/07 04:37:53;;;;;;;5.80;3.13;;;16.60;99.90;;;;;;5045786;28;20204;-48
2021/08/07 04:40:21;;;;;;;6.80;2.70;;;16.70;99.90;;;;;;5045684;28;20256;-49
2021/08/07 04:42:49;;;;;;;3.80;2.63;;;16.60;99.90;;;;;;5046133;28;20243;-48
2021/08/07 04:45:16;;;;;;;4.27;2.40;;;16.60;99.90;;;;;;5045746;28;20236;-49
2021/08/07 04:47:59;;;;;;;4.07;2.70;;;16.60;99.90;;;;;;5045595;28;20588;-48
2021/08/07 04:50:28;;;;;;;4.23;2.70;;;16.60;99.90;;;;;;5045228;28;20820;-49
2021/08/07 04:52:56;;;;;;;4.90;2.07;;;16.80;99.90;;;;;;5045459;28;20288;-48
2021/08/07 04:55:23;;;;;;;7.77;2.80;;;16.80;99.90;;;;;;5045003;28;20291;-48
2021/08/07 04:57:51;;;;;;;6.23;2.67;;;16.60;99.90;;;;;;5046804;28;20289;-48
2021/08/07 05:00:19;;;;;;;2.77;2.30;;;16.60;99.90;;;;;;5045245;28;20392;-48
2021/08/07 05:02:46;;;;;;;5.07;2.47;;;16.70;99.90;;;;;;5046045;28;20290;-48
2021/08/07 05:05:15;;;;;;;4.43;2.40;;;16.70;99.90;;;;;;5044362;28;20297;-48
2021/08/07 05:07:43;;;;;;;5.50;2.53;;;16.50;99.90;;;;;;5045762;28;20206;-48
2021/08/07 05:10:11;;;;;;;4.17;2.43;;;16.50;99.90;;;;;;5037644;28;20937;-48
2021/08/07 05:12:38;;;;;;;2.47;2.23;;;16.50;99.90;;;;;;5046154;28;20233;-49
2021/08/07 05:15:06;;;;;;;5.13;2.13;;;16.60;99.90;;;;;;5045287;28;20242;-48
2021/08/07 05:17:33;;;;;;;4.00;2.60;;;16.70;99.90;;;;;;5048093;28;20644;-49
2021/08/07 05:20:00;;;;;;;3.47;2.40;;;16.70;99.90;;;;;;5048911;28;20312;-48
2021/08/07 05:22:26;;;;;;;3.77;2.20;;;16.80;99.90;;;;;;5048882;28;20697;-48
2021/08/07 05:24:53;;;;;;;6.83;2.60;;;16.80;99.90;;;;;;5049385;28;20261;-48
2021/08/07 05:27:20;;;;;;;6.23;2.27;;;16.70;99.90;;;;;;5050010;28;20635;-49
2021/08/07 05:29:47;;;;;;;3.67;2.50;;;16.90;99.90;;;;;;5049728;28;20260;-49
2021/08/07 05:32:14;;;;;;;5.00;2.30;;;16.80;99.90;;;;;;5050101;28;20283;-49
2021/08/07 05:34:40;;;;;;;7.63;2.07;;;16.90;99.90;;;;;;5048399;28;20211;-48
2021/08/07 05:37:07;;;;;;;4.70;2.30;;;16.90;99.90;;;;;;5049442;28;20734;-49
2021/08/07 05:39:34;;;;;;;3.30;2.10;;;16.80;99.90;;;;;;5048639;28;20194;-48
2021/08/07 05:42:01;;;;;;;6.60;2.30;;;16.80;99.90;;;;;;5048733;28;20209;-48
2021/08/07 05:44:28;;;;;;;5.57;1.93;;;16.90;99.90;;;;;;5048756;28;20297;-48
2021/08/07 05:46:54;;;;;;;3.17;2.23;;;16.90;99.90;;;;;;5048821;28;20249;-49
2021/08/07 05:49:21;;;;;;;3.00;1.90;;;17.10;99.90;;;;;;5048667;28;20218;-49
2021/08/07 05:51:48;;;;;;;6.00;2.20;;;17.10;99.90;;;;;;5049549;28;20282;-49
2021/08/07 05:54:17;;;;;;;4.97;2.00;;;17.20;99.90;;;;;;5049168;28;20570;-48
2021/08/07 05:56:44;;;;;;;4.60;1.80;;;17.10;99.90;;;;;;5048323;28;20201;-49
2021/08/07 05:59:11;;;;;;;5.73;2.33;;;17.40;99.90;;;;;;5048847;28;20296;-48
2021/08/07 06:01:37;;;;;;;8.60;2.20;;;17.30;99.90;;;;;;5044520;28;20238;-48
2021/08/07 06:04:04;;;;;;;4.13;2.20;;;17.30;99.90;;;;;;5049064;28;20204;-49
2021/08/07 06:06:31;;;;;;;4.37;2.23;;;17.30;99.90;;;;;;5049036;28;20225;-48
2021/08/07 06:08:58;;;;;;;4.20;2.10;;;17.30;99.90;;;;;;5049364;28;20647;-48
2021/08/07 06:11:25;;;;;;;4.37;2.70;;;17.40;99.90;;;;;;5048117;28;20308;-48
2021/08/07 06:13:52;;;;;;;9.33;2.20;;;17.50;99.90;;;;;;5048605;28;20573;-49
2021/08/07 06:16:18;;;;;;;4.97;2.37;;;17.60;99.90;;;;;;5048598;28;20211;-49
2021/08/07 06:18:46;;;;;;;2.67;2.47;;;17.70;99.90;;;;;;5048466;28;20254;-48
2021/08/07 06:21:13;;;;;;;2.30;2.10;;;17.80;99.90;;;;;;5048392;28;20264;-48
2021/08/07 06:23:40;;;;;;;4.83;2.07;;;17.70;99.90;;;;;;5047767;28;20290;-49
2021/08/07 06:26:08;;;;;;;5.07;2.40;;;17.90;99.90;;;;;;5048356;28;20245;-48
2021/08/07 06:28:37;;;;;;;5.70;1.83;;;17.90;99.90;;;;;;5046934;28;20271;-48
2021/08/07 06:31:05;;;;;;;3.20;1.80;;;17.70;99.90;;;;;;5039481;28;20304;-48
2021/08/07 06:33:33;;;;;;;4.23;1.67;;;17.60;99.90;;;;;;5049438;28;20218;-49
2021/08/07 06:36:00;;;;;;;5.77;2.00;;;17.70;99.90;;;;;;5047888;28;20260;-48
2021/08/07 06:38:27;;;;;;;3.60;1.90;;;17.80;99.90;;;;;;5048330;28;20238;-48
2021/08/07 06:40:54;;;;;;;4.87;1.83;;;17.80;99.90;;;;;;5047133;28;20235;-48
2021/08/07 06:43:21;;;;;;;3.17;1.80;;;17.70;99.90;;;;;;5048772;28;20655;-49
2021/08/07 06:45:48;;;;;;;2.67;1.63;;;17.40;99.90;;;;;;5047551;28;20286;-49
2021/08/07 06:48:15;;;;;;;4.70;1.40;;;17.40;99.90;;;;;;5049205;28;20664;-49
2021/08/07 06:50:42;;;;;;;1.63;1.20;;;17.40;99.90;;;;;;5047013;28;20270;-49
2021/08/07 06:53:09;;;;;;;3.37;1.40;;;17.30;99.90;;;;;;5047618;28;20206;-49
2021/08/07 06:55:36;;;;;;;6.23;1.23;;;17.20;99.90;;;;;;5046993;28;20249;-48
2021/08/07 06:58:03;;;;;;;2.27;1.07;;;17.30;99.90;;;;;;5047810;28;20246;-48
2021/08/07 07:00:29;;;;;;;3.53;1.30;;;17.40;99.90;;;;;;5046933;28;20242;-48
2021/08/07 07:02:56;;;;;;;3.43;0.90;;;17.40;99.90;;;;;;5047275;28;20217;-49
2021/08/07 07:05:29;;;;;;;5.97;1.00;;;17.50;99.90;;;;;;5047102;28;20213;-49
2021/08/07 07:07:56;;;;;;;3.27;1.53;;;17.60;99.90;;;;;;5062712;28;20267;-48
2021/08/07 07:10:22;;;;;;;4.80;1.00;;;17.60;99.90;;;;;;5047056;28;20284;-49
2021/08/07 07:12:49;;;;;;;3.17;1.50;;;17.70;99.90;;;;;;5048427;28;20328;-48
2021/08/07 07:15:17;;;;;;;4.87;1.03;;;17.90;99.90;;;;;;5047013;28;20289;-49
2021/08/07 07:17:44;;;;;;;2.13;1.07;;;18.10;99.90;;;;;;5047377;28;20309;-48
2021/08/07 07:20:13;;;;;;;1.50;0.90;;;18.40;99.90;;;;;;5046558;28;20228;-48
2021/08/07 07:22:40;;;;;;;1.07;0.87;;;18.80;99.90;;;;;;5047448;28;20206;-49
2021/08/07 07:25:09;;;;;;;3.97;1.40;;;19.20;99.90;;;;;;5046332;28;20243;-49
2021/08/07 07:27:36;;;;;;;2.50;1.30;;;19.20;99.90;;;;;;5046489;28;20297;-49
2021/08/07 07:30:04;;;;;;;2.97;1.53;;;19.10;99.90;;;;;;5039198;28;20259;-49
2021/08/07 07:32:31;;;;;;;4.40;1.40;;;18.80;99.90;;;;;;5047066;28;20324;-48
2021/08/07 07:34:58;;;;;;;2.67;1.10;;;18.90;99.90;;;;;;5046555;28;20253;-49
2021/08/07 07:37:25;;;;;;;4.07;1.03;;;19.40;99.90;;;;;;5046292;28;20313;-48
2021/08/07 07:39:52;;;;;;;2.80;1.40;;;19.80;99.90;;;;;;5046946;28;20353;-48
2021/08/07 07:42:19;;;;;;;7.70;1.90;;;20.00;99.90;;;;;;5045630;28;20242;-49
2021/08/07 07:44:45;;;;;;;9.63;1.77;;;20.10;99.90;;;;;;5046568;28;20219;-49
2021/08/07 07:47:12;;;;;;;3.67;1.20;;;20.00;99.90;;;;;;5047161;28;20409;-49
2021/08/07 07:49:39;;;;;;;3.33;1.30;;;19.80;99.90;;;;;;5046749;28;20541;-49
2021/08/07 07:52:06;;;;;;;3.33;1.20;;;19.90;99.90;;;;;;5046508;28;20631;-48
2021/08/07 07:54:33;;;;;;;2.73;1.50;;;20.10;99.90;;;;;;5046316;28;20237;-48
2021/08/07 07:57:02;;;;;;;3.43;1.43;;;20.50;99.90;;;;;;5046338;28;20603;-48
2021/08/07 07:59:28;;;;;;;2.20;1.13;;;20.20;99.90;;;;;;5047305;28;20350;-48
2021/08/07 08:01:55;;;;;;;2.23;1.17;;;20.20;99.90;;;;;;5045494;28;20206;-48
2021/08/07 08:04:22;;;;;;;3.67;1.20;;;20.40;99.90;;;;;;5046648;28;20211;-49
2021/08/07 08:06:49;;;;;;;1.83;1.13;;;20.70;48.80;;;;;;5045784;28;20645;-49
2021/08/07 08:09:16;;;;;;;3.87;1.67;;;20.70;21.20;;;;;;5047264;28;20206;-49
2021/08/07 08:11:42;;;;;;;2.30;0.80;;;20.30;1.00;;;;;;5046580;28;20305;-48
2021/08/07 08:14:09;;;;;;;3.23;0.80;;;20.20;52.90;;;;;;5046652;28;20204;-48
2021/08/07 08:16:36;;;;;;;1.77;0.80;;;20.60;1.00;;;;;;5045603;28;20641;-47
2021/08/07 08:19:03;;;;;;;2.57;0.93;;;20.40;1.00;;;;;;5046017;28;20238;-49
2021/08/07 08:21:31;;;;;;;2.47;0.90;;;20.60;1.00;;;;;;5037381;28;20237;-48
2021/08/07 08:23:58;;;;;;;3.03;1.03;;;20.90;1.00;;;;;;5046085;28;20244;-48
2021/08/07 08:26:25;;;;;;;3.63;1.10;;;20.90;1.00;;;;;;5046024;28;20287;-48
2021/08/07 08:28:52;;;;;;;3.93;1.10;;;20.80;1.00;;;;;;5046264;28;20304;-49
2021/08/07 08:31:18;;;;;;;3.93;1.27;;;20.90;1.00;;;;;;5045629;28;20391;-48
2021/08/07 08:33:45;;;;;;;2.47;0.90;;;20.50;1.00;;;;;;5045814;28;20220;-48
2021/08/07 08:36:12;;;;;;;2.00;0.90;;;20.50;1.00;;;;;;5045902;28;20268;-49
2021/08/07 08:38:39;;;;;;;2.37;1.00;;;20.60;1.00;;;;;;5045849;28;20291;-48
2021/08/07 08:41:06;;;;;;;1.80;1.00;;;20.40;1.00;;;;;;5045220;28;20236;-49
2021/08/07 08:43:33;;;;;;;4.13;0.80;;;20.80;1.00;;;;;;5046214;28;20635;-49
2021/08/07 08:46:00;;;;;;;1.47;1.00;;;21.20;1.00;;;;;;5045717;28;20307;-49
2021/08/07 08:48:29;;;;;;;2.23;1.17;;;21.00;99.90;;;;;;5045690;28;20221;-49
2021/08/07 08:50:56;;;;;;;3.13;0.90;;;21.30;1.00;;;;;;5045267;28;20260;-48
2021/08/07 08:53:23;;;;;;;2.93;1.10;;;21.50;99.90;;;;;;5036775;28;20242;-49
2021/08/07 08:55:50;;;;;;;3.30;0.90;;;21.70;1.00;;;;;;5045302;28;20216;-49
2021/08/07 08:58:17;;;;;;;1.33;0.90;;;21.40;1.00;;;;;;5045254;28;20616;-49
2021/08/07 09:00:45;;;;;;;2.33;0.80;;;21.50;99.90;;;;;;5045958;28;20246;-49
2021/08/07 09:03:12;;;;;;;3.40;1.00;;;22.20;1.00;;;;;;5045008;28;20664;-49
2021/08/07 09:05:39;;;;;;;3.03;1.10;;;22.30;1.00;;;;;;5046173;28;20552;-49
2021/08/07 09:08:06;;;;;;;3.97;1.10;;;21.40;99.90;;;;;;5045442;28;20228;-49
2021/08/07 09:10:35;;;;;;;2.10;1.20;;;21.50;1.00;;;;;;5046398;28;20260;-48
2021/08/07 09:13:03;;;;;;;4.40;1.20;;;21.40;99.90;;;;;;5046028;28;20619;-48
2021/08/07 09:15:39;;;;;;;2.97;1.40;;;21.50;1.00;;;;;;5045940;28;20211;-49
2021/08/07 09:18:18;;;;;;;2.30;1.40;;;21.90;99.90;;;;;;5045602;28;20243;-49
2021/08/07 09:20:47;;;;;;;4.67;1.30;;;21.50;1.00;;;;;;5045589;28;20678;-49
2021/08/07 09:23:27;;;;;;;2.83;1.60;;;21.10;99.90;;;;;;5045972;28;20715;-48
2021/08/07 09:25:53;;;;;;;4.10;1.60;;;21.40;1.00;;;;;;5045170;28;20242;-48
2021/08/07 09:28:20;;;;;;;2.17;1.67;;;21.80;99.90;;;;;;5045560;28;20581;-49
2021/08/07 09:30:47;;;;;;;3.97;2.10;;;21.60;27.30;;;;;;5045037;28;20268;-49
2021/08/07 09:33:22;;;;;;;3.90;2.10;;;21.30;1.00;;;;;;5046243;28;20268;-49
2021/08/07 09:35:49;;;;;;;2.53;1.80;;;20.80;1.00;;;;;;5045395;28;20614;-48
2021/08/07 09:38:18;;;;;;;2.70;1.60;;;21.10;1.00;;;;;;5044914;28;20642;-48
2021/08/07 09:40:48;;;;;;;2.30;1.50;;;21.40;99.90;;;;;;5045007;28;20246;-48
2021/08/07 09:43:18;;;;;;;2.23;0.90;;;21.40;99.90;;;;;;5046085;28;20239;-48
2021/08/07 09:46:00;;;;;;;6.20;1.47;;;21.80;1.00;;;;;;5044692;28;20260;-48
2021/08/07 09:48:40;;;;;;;1.77;0.80;;;22.00;99.90;;;;;;5045250;28;20716;-47
2021/08/07 09:51:21;;;;;;;2.50;1.33;;;21.80;1.00;;;;;;5045571;28;20706;-48
2021/08/07 09:54:18;;;;;;;2.17;0.87;;;21.80;1.00;;;;;;5044222;28;20223;-48
2021/08/07 09:56:57;;;;;;;3.93;1.23;;;21.70;1.00;;;;;;5044086;28;20479;-49
2021/08/07 09:59:26;;;;;;;2.40;1.10;;;21.90;99.90;;;;;;5045118;28;20586;-48
2021/08/07 10:01:55;;;;;;;5.37;1.37;;;22.10;1.00;;;;;;5044689;28;20208;-48
2021/08/07 10:04:22;;;;;;;4.70;1.13;;;22.10;1.00;;;;;;5046575;28;20219;-52
2021/08/07 10:07:06;;;;;;;3.20;1.00;;;21.70;99.90;;;;;;5047990;28;20204;-48
2021/08/07 10:09:34;;;;;;;4.30;1.33;;;21.70;1.00;;;;;;5049194;28;20208;-48
2021/08/07 10:12:05;;;;;;;2.30;1.27;;;21.70;79.60;;;;;;5039953;28;20313;-48
2021/08/07 10:14:32;;;;;;;2.57;0.90;;;21.90;1.00;;;;;;5047881;28;20236;-48
2021/08/07 10:17:02;;;;;;;1.73;1.10;;;22.00;99.90;;;;;;5048432;28;20200;-48
2021/08/07 10:19:31;;;;;;;2.40;0.90;;;22.20;1.00;;;;;;5047354;28;20244;-48
2021/08/07 10:21:58;;;;;;;5.13;1.13;;;22.30;1.00;;;;;;5049128;28;20552;-49
2021/08/07 10:24:28;;;;;;;2.27;1.00;;;22.20;99.90;;;;;;5047579;28;20315;-49
2021/08/07 10:26:58;;;;;;;3.63;0.90;;;22.10;1.00;;;;;;5047795;28;20569;-48
2021/08/07 10:29:38;;;;;;;1.13;1.03;;;22.20;1.00;;;;;;5047963;28;20204;-49
2021/08/07 10:32:06;;;;;;;2.33;1.00;;;21.70;1.00;;;;;;5039754;28;20675;-48
2021/08/07 10:34:37;;;;;;;4.43;1.00;;;21.50;99.90;;;;;;5047061;28;20257;-48
2021/08/07 10:37:04;;;;;;;1.97;0.97;;;21.10;1.00;;;;;;5047525;28;20701;-48
2021/08/07 10:39:32;;;;;;;2.70;1.00;;;21.20;45.10;;;;;;5047639;28;20224;-48
2021/08/07 10:42:02;;;;;;;2.30;0.90;;;21.50;16.60;;;;;;5047385;28;20206;-48
2021/08/07 10:44:32;;;;;;;4.23;1.00;;;21.80;1.00;;;;;;5047980;28;20273;-48
2021/08/07 10:46:59;;;;;;;1.83;0.97;;;21.90;99.90;;;;;;5047361;28;20273;-49
2021/08/07 10:49:37;;;;;;;2.13;0.97;;;21.80;99.90;;;;;;5046933;28;20291;-48
2021/08/07 10:52:22;;;;;;;3.80;1.20;;;21.50;56.40;;;;;;5047618;28;20746;-49
2021/08/07 10:54:51;;;;;;;2.23;0.80;;;21.30;99.90;;;;;;5047174;28;20204;-48
2021/08/07 10:57:34;;;;;;;3.87;1.10;;;21.30;1.00;;;;;;5046840;28;20742;-48
2021/08/07 11:00:25;;;;;;;1.57;1.03;;;21.20;1.00;;;;;;5047392;28;20203;-46
2021/08/07 11:03:14;;;;;;;1.50;0.90;;;21.30;99.90;;;;;;5048079;28;20357;-47
2021/08/07 11:05:52;;;;;;;2.40;1.30;;;21.40;1.00;;;;;;5047632;28;20242;-47
2021/08/07 11:08:19;;;;;;;3.47;0.87;;;21.50;1.00;;;;;;5046957;28;20227;-47
2021/08/07 11:10:46;;;;;;;2.80;1.10;;;21.50;99.90;;;;;;5046879;28;20277;-47
2021/08/07 11:13:25;;;;;;;3.80;0.93;;;21.70;99.90;;;;;;5047138;28;20760;-47
2021/08/07 11:16:18;;;;;;;1.43;0.73;;;22.00;1.00;;;;;;5046744;28;20291;-49
2021/08/07 11:18:46;;;;;;;1.90;0.73;;;22.10;1.00;;;;;;5047108;28;20282;-49
2021/08/07 11:21:50;;;;;;;1.97;0.90;;;22.10;1.00;;;;;;5046797;28;20254;-48
2021/08/07 11:24:55;;;;;;;2.50;0.83;;;22.20;58.80;;;;;;5043858;28;20294;-48
2021/08/07 11:27:44;;;;;;;5.00;1.20;;;22.40;99.90;;;;;;5047106;28;20341;-48
2021/08/07 11:30:23;;;;;;;3.60;0.67;;;23.20;1.00;;;;;;5047648;28;20233;-48
2021/08/07 11:32:56;;;;;;;9.00;1.07;;;23.70;1.00;;;;;;5046100;28;20311;-48
2021/08/07 11:35:31;;;;;;;1.90;0.80;;;23.70;99.90;;;;;;5046801;28;20472;-49
2021/08/07 11:38:25;;;;;;;2.40;0.83;;;23.60;99.90;;;;;;5046033;28;20238;-48
2021/08/07 11:41:03;;;;;;;3.40;0.80;;;23.50;1.00;;;;;;5045331;28;20212;-48
2021/08/07 11:43:41;;;;;;;0.83;0.50;;;23.10;1.00;;;;;;5046969;28;20488;-49
2021/08/07 11:46:17;;;;;;;2.70;0.87;;;23.30;99.90;;;;;;5046404;28;20214;-48
2021/08/07 11:48:53;;;;;;;1.20;0.70;;;23.80;1.00;;;;;;5046042;28;20233;-48
2021/08/07 11:51:25;;;;;;;1.77;0.77;;;23.50;1.00;;;;;;5038430;28;20231;-49
2021/08/07 11:53:52;;;;;;;1.97;0.70;;;23.70;1.00;;;;;;5045898;28;20620;-49
2021/08/07 11:56:24;;;;;;;3.93;1.30;;;23.80;1.00;;;;;;5046324;28;20323;-49
2021/08/07 11:58:54;;;;;;;5.30;0.97;;;24.10;1.00;;;;;;5045595;28;20331;-49
2021/08/07 12:01:27;;;;;;;1.57;0.63;;;24.20;1.00;;;;;;5046428;28;20309;-49
2021/08/07 12:03:55;;;;;;;2.10;0.70;;;24.10;1.00;;;;;;5045516;28;20250;-49
2021/08/07 12:06:37;;;;;;;2.30;0.80;;;24.10;1.00;;;;;;5046191;28;20234;-49
2021/08/07 12:09:15;;;;;;;2.77;1.00;;;23.40;81.00;;;;;;5046603;28;20286;-48
2021/08/07 12:11:42;;;;;;;5.13;0.97;;;23.00;99.90;;;;;;5046340;28;20293;-49
2021/08/07 12:14:10;;;;;;;3.30;0.80;;;23.10;1.00;;;;;;5045413;28;20238;-49
2021/08/07 12:16:39;;;;;;;2.10;0.80;;;23.70;1.00;;;;;;5045998;28;20199;-49
2021/08/07 12:19:16;;;;;;;3.23;1.00;;;24.20;99.90;;;;;;5045738;28;20292;-49
2021/08/07 12:21:44;;;;;;;2.57;0.70;;;24.00;1.00;;;;;;5045416;28;20826;-49
2021/08/07 12:24:23;;;;;;;4.90;1.00;;;23.50;1.00;;;;;;5045510;28;20212;-49
2021/08/07 12:26:51;;;;;;;5.70;0.70;;;23.70;99.90;;;;;;5044769;28;20205;-49
2021/08/07 12:29:27;;;;;;;2.33;0.80;;;23.60;99.90;;;;;;5046239;28;20208;-49
2021/08/07 12:31:56;;;;;;;4.43;0.87;;;24.10;1.00;;;;;;5046535;28;20414;-49
2021/08/07 12:34:51;;;;;;;2.13;0.90;;;23.50;1.00;;;;;;5045717;28;20207;-48
2021/08/07 12:37:20;;;;;;;2.63;0.80;;;22.90;99.90;;;;;;5043665;28;20242;-48
2021/08/07 12:39:49;;;;;;;2.00;0.70;;;22.80;1.00;;;;;;5044269;28;20263;-49
2021/08/07 12:42:23;;;;;;;1.60;0.80;;;23.30;99.90;;;;;;5036993;28;20675;-49
2021/08/07 12:45:09;;;;;;;3.83;1.50;;;23.60;38.80;;;;;;5046381;28;20401;-49
2021/08/07 12:47:37;;;;;;;1.57;0.77;;;24.00;99.90;;;;;;5046164;28;20216;-49
2021/08/07 12:50:11;;;;;;;2.43;0.73;;;24.50;99.90;;;;;;5045875;28;20270;-49
2021/08/07 12:52:56;;;;;;;3.23;1.13;;;24.50;1.00;;;;;;5045555;28;20300;-49
2021/08/07 12:55:24;;;;;;;2.10;0.70;;;24.50;1.00;;;;;;5044993;28;20645;-48
2021/08/07 12:58:21;;;;;;;3.37;0.70;;;24.40;1.00;;;;;;5046490;28;20233;-49
2021/08/07 13:00:49;;;;;;;2.73;0.80;;;24.70;60.90;;;;;;5045572;28;20803;-49
2021/08/07 13:03:16;;;;;;;3.07;0.80;;;24.50;1.00;;;;;;5045642;28;20271;-49